Terminal Aerodrome Forecast
Issued by NWS Greer, SC

Home | Current Version | Previous Version | Text Only | Print | Product List | Glossary On
Versions: 1 2 3 4 5 6 7 8 9 10 11 12 13 14 15 16 17 18 19 20 21 22 23 24 25 26 27 28 29 30 31 32 33 34 35
000
FTUS42 KGSP 141125
TAFAVL
TAF
KAVL 141125Z 1412/1512 VRB03KT P6SM BKN080
     FM141700 15007KT P6SM OVC040
     FM150000 14008KT P6SM OVC050 PROB30 1500/1506 4SM -SN OVC025
     FM150600 15007KT 5SM -SN BR OVC035
     FM151100 13004KT P6SM OVC020 WS020/20030KT=

USA.gov is the U.S. government's official web portal to all federal, state and local government web resources and services.